Time;durP1;ratioP1;P1;durP2;ratioP2;P2;SDS_P1;SDS_P2;PMS_P1;PMS_P2;Temp;Humidity;BMP_temperature;BMP_pressure;BME280_temperature;BME280_humidity;BME280_pressure;Samples;Min_cycle;Max_cycle;Signal;HPM_P1;HPM_P2
2023/06/09 00:00:48;;;;;;;36.72;18.45;;;;;;;;;;5004784;28;20037;-57
2023/06/09 00:03:16;;;;;;;40.15;21.15;;;;;;;;;;5023186;28;20049;-57
2023/06/09 00:05:42;;;;;;;35.25;18.35;;;;;;;;;;5022983;28;20497;-57
2023/06/09 00:08:09;;;;;;;33.38;17.20;;;;;;;;;;5018920;28;20426;-57
2023/06/09 00:10:35;;;;;;;29.38;16.92;;;;;;;;;;5018742;28;20046;-57
2023/06/09 00:13:01;;;;;;;27.65;15.43;;;;;;;;;;5023019;28;20049;-57
2023/06/09 00:15:27;;;;;;;28.77;15.38;;;;;;;;;;5022809;28;20054;-57
2023/06/09 00:17:54;;;;;;;29.63;16.70;;;;;;;;;;5018745;28;20037;-57
2023/06/09 00:20:20;;;;;;;27.65;15.07;;;;;;;;;;5015065;28;20037;-57
2023/06/09 00:22:48;;;;;;;28.88;15.55;;;;;;;;;;5020716;28;20049;-57
2023/06/09 00:25:16;;;;;;;28.35;16.42;;;;;;;;;;5022732;28;20030;-57
2023/06/09 00:27:45;;;;;;;28.45;16.02;;;;;;;;;;5020680;28;20043;-57
2023/06/09 00:30:14;;;;;;;29.85;16.05;;;;;;;;;;5017412;28;20049;-57
2023/06/09 00:32:42;;;;;;;28.35;15.38;;;;;;;;;;4986474;28;20511;-57
2023/06/09 00:35:09;;;;;;;28.20;15.32;;;;;;;;;;5022740;28;20044;-57
2023/06/09 00:37:35;;;;;;;30.58;17.13;;;;;;;;;;5018949;28;20034;-57
2023/06/09 00:40:03;;;;;;;27.35;15.40;;;;;;;;;;5018527;28;20045;-57
2023/06/09 00:42:30;;;;;;;29.08;16.50;;;;;;;;;;5001026;28;20048;-57
2023/06/09 00:44:56;;;;;;;29.52;16.30;;;;;;;;;;5012647;28;20029;-57
2023/06/09 00:47:22;;;;;;;30.15;16.52;;;;;;;;;;5016429;28;20053;-57
2023/06/09 00:49:49;;;;;;;29.70;16.17;;;;;;;;;;5014609;28;20034;-59
2023/06/09 00:52:15;;;;;;;27.65;14.63;;;;;;;;;;5021657;28;20491;-56
2023/06/09 00:54:41;;;;;;;27.60;15.77;;;;;;;;;;5021767;28;20406;-57
2023/06/09 00:57:08;;;;;;;31.08;14.98;;;;;;;;;;5011034;28;20447;-57
2023/06/09 00:59:35;;;;;;;30.60;15.82;;;;;;;;;;5044007;28;20045;-57
2023/06/09 01:02:07;;;;;;;30.08;16.10;;;;;;;;;;5024050;28;20049;-57
2023/06/09 01:04:49;;;;;;;30.00;16.42;;;;;;;;;;5026685;28;20045;-57
2023/06/09 01:07:41;;;;;;;30.45;16.65;;;;;;;;;;5011302;28;20035;-58
2023/06/09 01:10:31;;;;;;;32.92;15.15;;;;;;;;;;5007521;28;20041;-57
2023/06/09 01:13:23;;;;;;;32.45;16.45;;;;;;;;;;5023823;28;20029;-57
2023/06/09 01:15:57;;;;;;;32.10;15.68;;;;;;;;;;5046292;28;20049;-57
2023/06/09 01:18:25;;;;;;;28.40;15.38;;;;;;;;;;5025789;28;20052;-57
2023/06/09 01:21:20;;;;;;;29.73;15.00;;;;;;;;;;5022779;28;20041;-57
2023/06/09 01:24:26;;;;;;;28.30;14.90;;;;;;;;;;5006407;28;20383;-57
2023/06/09 01:26:55;;;;;;;31.35;18.98;;;;;;;;;;5032401;28;20447;-57
2023/06/09 01:29:22;;;;;;;26.98;14.98;;;;;;;;;;5022357;28;20045;-57
2023/06/09 01:31:49;;;;;;;29.83;14.95;;;;;;;;;;5025627;28;20048;-57
2023/06/09 01:34:17;;;;;;;27.15;15.18;;;;;;;;;;5025864;28;20064;-57
2023/06/09 01:36:44;;;;;;;27.67;14.52;;;;;;;;;;5021965;28;20058;-57
2023/06/09 01:39:12;;;;;;;28.88;15.50;;;;;;;;;;5021170;28;20045;-57
2023/06/09 01:41:38;;;;;;;28.23;15.05;;;;;;;;;;5024784;28;20049;-57
2023/06/09 01:44:04;;;;;;;26.48;14.30;;;;;;;;;;5014934;28;20026;-57
2023/06/09 01:46:31;;;;;;;25.45;15.10;;;;;;;;;;5016555;28;20480;-58
2023/06/09 01:49:29;;;;;;;26.55;14.30;;;;;;;;;;5021605;28;20049;-57
2023/06/09 01:52:02;;;;;;;28.20;14.75;;;;;;;;;;5025731;28;20045;-58
2023/06/09 01:54:43;;;;;;;26.25;14.20;;;;;;;;;;5013354;28;20030;-57
2023/06/09 01:57:54;;;;;;;21.42;12.98;;;;;;;;;;5009328;28;20033;-57
2023/06/09 02:00:24;;;;;;;25.25;13.32;;;;;;;;;;5038345;28;20054;-58
2023/06/09 02:02:53;;;;;;;23.27;13.45;;;;;;;;;;5022919;28;20045;-57
2023/06/09 02:05:21;;;;;;;21.63;12.77;;;;;;;;;;5023069;28;20033;-57
2023/06/09 02:07:49;;;;;;;22.10;12.75;;;;;;;;;;5023075;28;20288;-58
2023/06/09 02:10:15;;;;;;;26.83;13.05;;;;;;;;;;5022216;28;20053;-57
2023/06/09 02:12:42;;;;;;;25.80;13.45;;;;;;;;;;5017343;28;20042;-57
2023/06/09 02:15:08;;;;;;;20.65;12.82;;;;;;;;;;5008799;28;20045;-57
2023/06/09 02:17:34;;;;;;;20.23;12.05;;;;;;;;;;5022593;28;20487;-57
2023/06/09 02:20:05;;;;;;;22.60;12.27;;;;;;;;;;5018253;28;20057;-56
2023/06/09 02:22:31;;;;;;;19.23;11.88;;;;;;;;;;5021511;28;20037;-56
2023/06/09 02:24:58;;;;;;;22.10;13.55;;;;;;;;;;5022739;28;20045;-57
2023/06/09 02:27:24;;;;;;;18.63;11.55;;;;;;;;;;5023984;28;20037;-57
2023/06/09 02:29:50;;;;;;;19.27;11.82;;;;;;;;;;5000076;28;20047;-55
2023/06/09 02:32:17;;;;;;;19.92;11.40;;;;;;;;;;5021539;28;20046;-57
2023/06/09 02:34:45;;;;;;;17.20;11.00;;;;;;;;;;5024711;28;20105;-57
2023/06/09 02:37:11;;;;;;;20.25;11.65;;;;;;;;;;5023922;28;20045;-57
2023/06/09 02:39:38;;;;;;;17.13;11.10;;;;;;;;;;5020014;28;20050;-57
2023/06/09 02:42:05;;;;;;;18.70;10.95;;;;;;;;;;5018479;28;20045;-57
2023/06/09 02:44:37;;;;;;;14.88;10.57;;;;;;;;;;5017166;28;20044;-58
2023/06/09 02:47:06;;;;;;;15.63;10.73;;;;;;;;;;5017430;28;20522;-57
2023/06/09 02:49:32;;;;;;;14.43;9.77;;;;;;;;;;5019692;28;20061;-57
2023/06/09 02:52:02;;;;;;;18.77;11.48;;;;;;;;;;5053784;28;20487;-57
2023/06/09 02:54:31;;;;;;;15.93;9.75;;;;;;;;;;5018579;28;20048;-57
2023/06/09 02:56:59;;;;;;;13.50;9.57;;;;;;;;;;5009942;28;20048;-57
2023/06/09 02:59:26;;;;;;;16.57;9.87;;;;;;;;;;5007911;28;20053;-57
2023/06/09 03:01:53;;;;;;;15.75;9.85;;;;;;;;;;5015891;28;20050;-56
2023/06/09 03:04:20;;;;;;;17.45;9.70;;;;;;;;;;5024512;28;20041;-56
2023/06/09 03:06:48;;;;;;;13.77;9.55;;;;;;;;;;5023301;28;20403;-57
2023/06/09 03:09:15;;;;;;;17.35;9.32;;;;;;;;;;5017290;28;20046;-57
2023/06/09 03:11:46;;;;;;;15.30;9.52;;;;;;;;;;5022540;28;20402;-57
2023/06/09 03:14:13;;;;;;;11.77;8.77;;;;;;;;;;5022733;28;20049;-57
2023/06/09 03:16:39;;;;;;;11.60;8.63;;;;;;;;;;5017461;28;20052;-56
2023/06/09 03:19:07;;;;;;;10.55;8.25;;;;;;;;;;5019098;28;20445;-57
2023/06/09 03:21:35;;;;;;;12.13;8.60;;;;;;;;;;5020484;28;20049;-57
2023/06/09 03:24:06;;;;;;;12.50;8.45;;;;;;;;;;5023267;28;20049;-57
2023/06/09 03:26:34;;;;;;;11.45;7.65;;;;;;;;;;5022543;28;20037;-58
2023/06/09 03:29:01;;;;;;;10.45;8.57;;;;;;;;;;5019213;28;20049;-57
2023/06/09 03:31:27;;;;;;;10.10;7.68;;;;;;;;;;5020379;28;20045;-57
2023/06/09 03:33:55;;;;;;;11.73;8.38;;;;;;;;;;5007425;28;20506;-58
2023/06/09 03:36:23;;;;;;;10.43;7.90;;;;;;;;;;5021554;28;20045;-58
2023/06/09 03:38:50;;;;;;;13.73;7.78;;;;;;;;;;5017509;28;20638;-58
2023/06/09 03:41:16;;;;;;;10.23;7.55;;;;;;;;;;5020240;28;20050;-58
2023/06/09 03:43:42;;;;;;;10.13;8.02;;;;;;;;;;5015802;28;20045;-57
2023/06/09 03:46:09;;;;;;;11.43;7.20;;;;;;;;;;5014098;28;20500;-57
2023/06/09 03:48:36;;;;;;;10.50;7.15;;;;;;;;;;5049485;28;20504;-57
2023/06/09 03:51:03;;;;;;;10.23;7.60;;;;;;;;;;5011160;28;20045;-57
2023/06/09 03:53:30;;;;;;;9.90;7.32;;;;;;;;;;5020067;28;20046;-58
2023/06/09 03:55:56;;;;;;;12.88;7.28;;;;;;;;;;5003065;28;20045;-57
2023/06/09 03:58:22;;;;;;;9.90;7.13;;;;;;;;;;5006437;28;20042;-57
2023/06/09 04:00:49;;;;;;;11.32;7.45;;;;;;;;;;5018567;28;20061;-57
2023/06/09 04:03:17;;;;;;;10.65;7.22;;;;;;;;;;5022121;28;20044;-58
2023/06/09 04:05:44;;;;;;;12.13;7.28;;;;;;;;;;5022119;28;20044;-58
2023/06/09 04:08:12;;;;;;;10.68;6.90;;;;;;;;;;5016606;28;20039;-57
2023/06/09 04:10:39;;;;;;;10.70;7.43;;;;;;;;;;5018017;28;20076;-57
2023/06/09 04:13:05;;;;;;;11.90;7.63;;;;;;;;;;5021603;28;20061;-57
2023/06/09 04:15:31;;;;;;;10.18;7.70;;;;;;;;;;5022620;28;20045;-58
2023/06/09 04:17:58;;;;;;;11.95;8.75;;;;;;;;;;5018121;28;20046;-57
2023/06/09 04:20:29;;;;;;;9.75;7.65;;;;;;;;;;5018935;28;20037;-57
2023/06/09 04:22:56;;;;;;;9.07;7.43;;;;;;;;;;5022752;28;20045;-57
2023/06/09 04:25:28;;;;;;;12.75;8.10;;;;;;;;;;5022669;28;20037;-57
2023/06/09 04:28:03;;;;;;;10.25;7.53;;;;;;;;;;5017096;28;20506;-57
2023/06/09 04:30:30;;;;;;;11.45;7.97;;;;;;;;;;5018970;28;20053;-62
2023/06/09 04:33:01;;;;;;;12.05;8.13;;;;;;;;;;5021176;28;20049;-58
2023/06/09 04:35:30;;;;;;;11.73;8.30;;;;;;;;;;5003781;28;20487;-58
2023/06/09 04:38:00;;;;;;;14.73;8.70;;;;;;;;;;5046245;28;20046;-58
2023/06/09 04:40:29;;;;;;;11.20;8.40;;;;;;;;;;5020893;28;20049;-57
2023/06/09 04:42:57;;;;;;;11.18;8.20;;;;;;;;;;5019269;28;20057;-56
2023/06/09 04:45:27;;;;;;;;;;;;;;;;;;5010608;28;20503;-57
2023/06/09 04:47:59;;;;;;;12.73;9.20;;;;;;;;;;5033837;28;19936;-57
2023/06/09 04:50:37;;;;;;;11.77;8.23;;;;;;;;;;5022119;28;20065;-57
2023/06/09 04:53:06;;;;;;;14.23;9.68;;;;;;;;;;5020656;28;20038;-56
2023/06/09 04:55:36;;;;;;;11.55;9.05;;;;;;;;;;5023143;28;20049;-57
2023/06/09 04:58:04;;;;;;;11.45;9.00;;;;;;;;;;5007379;28;20048;-57
2023/06/09 05:00:31;;;;;;;14.05;9.27;;;;;;;;;;5014489;28;20049;-58
2023/06/09 05:02:59;;;;;;;13.18;9.18;;;;;;;;;;5020731;28;20041;-58
2023/06/09 05:05:26;;;;;;;12.70;8.40;;;;;;;;;;5017967;28;20053;-58
2023/06/09 05:07:53;;;;;;;11.60;8.63;;;;;;;;;;5019664;28;20045;-57
2023/06/09 05:10:21;;;;;;;12.07;9.63;;;;;;;;;;5020462;28;20056;-60
2023/06/09 05:12:48;;;;;;;11.98;9.65;;;;;;;;;;5020697;28;20037;-59
2023/06/09 05:15:15;;;;;;;12.73;8.77;;;;;;;;;;5017341;28;20042;-59
2023/06/09 05:17:42;;;;;;;13.45;9.52;;;;;;;;;;5014390;28;20453;-59
2023/06/09 05:20:10;;;;;;;12.85;9.07;;;;;;;;;;5021987;28;20415;-60
2023/06/09 05:22:37;;;;;;;12.48;9.27;;;;;;;;;;5021292;28;20045;-59
2023/06/09 05:25:05;;;;;;;14.20;10.35;;;;;;;;;;5033585;28;20412;-57
2023/06/09 05:27:31;;;;;;;13.30;10.43;;;;;;;;;;5014469;28;20049;-58
2023/06/09 05:29:57;;;;;;;16.50;11.00;;;;;;;;;;5021748;28;20041;-59
2023/06/09 05:32:24;;;;;;;14.75;10.70;;;;;;;;;;5019768;28;20045;-59
2023/06/09 05:34:52;;;;;;;15.73;10.88;;;;;;;;;;5033205;28;20041;-58
2023/06/09 05:37:19;;;;;;;16.50;11.55;;;;;;;;;;5018812;28;20042;-58
2023/06/09 05:39:46;;;;;;;16.35;11.63;;;;;;;;;;5022793;28;20048;-58
2023/06/09 05:42:13;;;;;;;18.77;12.05;;;;;;;;;;5020927;28;20050;-58
2023/06/09 05:44:39;;;;;;;18.92;12.13;;;;;;;;;;5015777;28;20357;-58
2023/06/09 05:47:06;;;;;;;14.07;10.95;;;;;;;;;;5019878;28;20048;-58
2023/06/09 05:49:33;;;;;;;15.80;11.63;;;;;;;;;;5025436;28;20033;-58
2023/06/09 05:51:59;;;;;;;16.55;11.25;;;;;;;;;;5025879;28;20056;-59
2023/06/09 05:54:26;;;;;;;17.80;12.02;;;;;;;;;;5014534;28;20491;-58
2023/06/09 05:56:53;;;;;;;16.58;12.48;;;;;;;;;;5011474;28;20038;-59
2023/06/09 05:59:20;;;;;;;15.93;11.38;;;;;;;;;;5011550;28;20439;-58
2023/06/09 06:01:47;;;;;;;14.65;10.57;;;;;;;;;;5025171;28;20049;-59
2023/06/09 06:04:13;;;;;;;15.75;11.57;;;;;;;;;;5020837;28;20054;-58
2023/06/09 06:06:39;;;;;;;14.77;10.85;;;;;;;;;;5022686;28;20056;-59
2023/06/09 06:09:06;;;;;;;15.63;11.40;;;;;;;;;;5024408;28;20054;-58
2023/06/09 06:11:32;;;;;;;16.60;12.70;;;;;;;;;;5024980;28;20470;-58
2023/06/09 06:13:58;;;;;;;14.88;10.95;;;;;;;;;;5021312;28;20060;-57
2023/06/09 06:16:24;;;;;;;13.57;9.98;;;;;;;;;;5018211;28;20045;-58
2023/06/09 06:18:50;;;;;;;12.50;9.43;;;;;;;;;;5024549;28;20038;-60
2023/06/09 06:21:17;;;;;;;13.25;9.77;;;;;;;;;;5024830;28;20041;-58
2023/06/09 06:23:44;;;;;;;15.35;10.50;;;;;;;;;;5022237;28;20079;-58
2023/06/09 06:26:10;;;;;;;13.90;10.60;;;;;;;;;;5021371;28;20038;-58
2023/06/09 06:28:36;;;;;;;15.57;10.02;;;;;;;;;;5024073;28;20038;-58
2023/06/09 06:31:05;;;;;;;13.60;9.95;;;;;;;;;;5024476;28;20052;-59
2023/06/09 06:33:31;;;;;;;12.83;10.17;;;;;;;;;;5022298;28;20419;-58
2023/06/09 06:35:58;;;;;;;14.98;11.18;;;;;;;;;;5021229;28;20042;-58
2023/06/09 06:38:24;;;;;;;13.85;9.88;;;;;;;;;;5023636;28;20042;-58
2023/06/09 06:40:51;;;;;;;13.50;10.73;;;;;;;;;;5024075;28;20507;-58
2023/06/09 06:43:17;;;;;;;14.60;9.55;;;;;;;;;;5016276;28;20038;-58
2023/06/09 06:45:54;;;;;;;12.20;9.57;;;;;;;;;;5014260;28;20045;-59
2023/06/09 06:48:20;;;;;;;14.95;10.40;;;;;;;;;;5024077;28;20033;-58
2023/06/09 06:50:46;;;;;;;12.82;9.63;;;;;;;;;;5023738;28;20052;-59
2023/06/09 06:53:12;;;;;;;18.90;10.90;;;;;;;;;;5021957;28;20056;-58
2023/06/09 06:55:39;;;;;;;14.38;10.55;;;;;;;;;;5010839;28;20427;-59
2023/06/09 06:58:05;;;;;;;14.82;10.10;;;;;;;;;;5010052;28;20281;-58
2023/06/09 07:00:31;;;;;;;13.38;9.50;;;;;;;;;;5017234;28;20040;-58
2023/06/09 07:02:57;;;;;;;14.85;10.75;;;;;;;;;;5022287;28;20538;-58
2023/06/09 07:05:24;;;;;;;15.25;10.95;;;;;;;;;;5035792;28;20037;-58
2023/06/09 07:07:50;;;;;;;16.92;11.75;;;;;;;;;;5048784;28;20114;-59
2023/06/09 07:10:16;;;;;;;14.75;11.35;;;;;;;;;;5010671;28;20064;-58
2023/06/09 07:12:42;;;;;;;14.18;10.88;;;;;;;;;;5023514;28;20048;-58
2023/06/09 07:15:09;;;;;;;16.77;11.40;;;;;;;;;;5019756;28;20041;-59
2023/06/09 07:17:35;;;;;;;15.68;11.95;;;;;;;;;;5021209;28;20054;-58
2023/06/09 07:20:01;;;;;;;13.38;10.55;;;;;;;;;;5023709;28;20037;-58
2023/06/09 07:22:28;;;;;;;14.63;11.10;;;;;;;;;;5024135;28;20060;-58
2023/06/09 07:24:54;;;;;;;14.57;10.45;;;;;;;;;;5018964;28;20038;-59
2023/06/09 07:27:20;;;;;;;15.00;10.70;;;;;;;;;;5019535;28;20048;-58
2023/06/09 07:29:46;;;;;;;14.02;11.25;;;;;;;;;;5021846;28;20044;-59
2023/06/09 07:32:12;;;;;;;14.02;10.93;;;;;;;;;;5024073;28;20057;-58
2023/06/09 07:34:39;;;;;;;14.65;10.88;;;;;;;;;;5019680;28;20038;-58
2023/06/09 07:37:05;;;;;;;16.70;11.52;;;;;;;;;;5020090;28;20038;-59
2023/06/09 07:39:36;;;;;;;15.13;11.20;;;;;;;;;;5022944;28;20045;-58
2023/06/09 07:42:03;;;;;;;15.23;10.60;;;;;;;;;;5020252;28;20034;-58
2023/06/09 07:44:29;;;;;;;17.30;11.38;;;;;;;;;;5015611;28;20041;-59
2023/06/09 07:46:55;;;;;;;16.00;11.13;;;;;;;;;;5017656;28;20045;-59
2023/06/09 07:49:22;;;;;;;15.25;10.63;;;;;;;;;;5023196;28;20041;-58
2023/06/09 07:51:50;;;;;;;14.20;10.13;;;;;;;;;;5023639;28;20360;-59
2023/06/09 07:54:16;;;;;;;11.93;10.00;;;;;;;;;;5010919;28;20435;-59
2023/06/09 07:56:48;;;;;;;16.83;9.93;;;;;;;;;;5010517;28;20133;-60
2023/06/09 07:59:16;;;;;;;14.90;9.68;;;;;;;;;;5005004;28;20621;-59
2023/06/09 08:01:43;;;;;;;14.80;9.95;;;;;;;;;;5023069;28;20033;-59
2023/06/09 08:04:10;;;;;;;11.95;9.32;;;;;;;;;;5016827;28;20038;-59
2023/06/09 08:06:37;;;;;;;11.70;9.15;;;;;;;;;;5013303;28;20030;-59
2023/06/09 08:09:04;;;;;;;13.25;9.82;;;;;;;;;;5022627;28;20049;-59
2023/06/09 08:11:30;;;;;;;11.98;8.00;;;;;;;;;;5022824;28;20076;-59
2023/06/09 08:13:56;;;;;;;11.48;8.25;;;;;;;;;;5019217;28;20064;-60
2023/06/09 08:16:22;;;;;;;11.40;8.38;;;;;;;;;;5019133;28;20048;-58
2023/06/09 08:18:48;;;;;;;11.35;8.70;;;;;;;;;;5022178;28;20376;-58
2023/06/09 08:21:15;;;;;;;10.98;8.85;;;;;;;;;;5022639;28;20037;-58
2023/06/09 08:23:44;;;;;;;10.95;8.20;;;;;;;;;;5012626;28;20145;-59
2023/06/09 08:26:10;;;;;;;;;;;;;;;;;;5018164;28;20056;-60
2023/06/09 08:28:40;;;;;;;10.10;7.68;;;;;;;;;;5022586;28;19913;-59
2023/06/09 08:31:08;;;;;;;10.40;7.43;;;;;;;;;;5014096;28;20046;-58
2023/06/09 08:33:35;;;;;;;13.27;8.00;;;;;;;;;;5019368;28;20049;-59
2023/06/09 08:36:05;;;;;;;11.25;7.45;;;;;;;;;;5019096;28;20058;-58
2023/06/09 08:38:33;;;;;;;11.13;7.95;;;;;;;;;;5022041;28;20049;-58
2023/06/09 08:41:09;;;;;;;14.27;9.60;;;;;;;;;;5022318;28;20037;-59
2023/06/09 08:43:36;;;;;;;8.75;6.95;;;;;;;;;;5011416;28;20041;-58
2023/06/09 08:46:05;;;;;;;10.23;7.15;;;;;;;;;;4996684;28;20042;-58
2023/06/09 08:48:33;;;;;;;8.40;6.63;;;;;;;;;;5016028;28;20042;-59
2023/06/09 08:51:00;;;;;;;10.38;6.65;;;;;;;;;;5009109;28;20045;-62
2023/06/09 08:53:27;;;;;;;11.85;6.57;;;;;;;;;;5017834;28;20057;-59
2023/06/09 08:55:54;;;;;;;8.20;6.20;;;;;;;;;;5009657;28;20030;-58
2023/06/09 08:58:23;;;;;;;9.63;5.78;;;;;;;;;;5009221;28;20041;-58
2023/06/09 09:00:51;;;;;;;6.00;5.40;;;;;;;;;;5018486;28;20060;-59
2023/06/09 09:03:18;;;;;;;6.88;5.63;;;;;;;;;;5018800;28;20056;-59
2023/06/09 09:05:45;;;;;;;7.30;5.50;;;;;;;;;;5020766;28;20038;-58
2023/06/09 09:08:12;;;;;;;7.32;5.40;;;;;;;;;;5022132;28;20442;-59
2023/06/09 09:10:40;;;;;;;6.68;4.82;;;;;;;;;;5022821;28;20045;-58
2023/06/09 09:13:09;;;;;;;6.65;5.10;;;;;;;;;;5018647;28;20057;-58
2023/06/09 09:15:37;;;;;;;6.47;4.80;;;;;;;;;;5020452;28;20046;-59
2023/06/09 09:18:09;;;;;;;6.40;5.00;;;;;;;;;;5017614;28;20060;-59
2023/06/09 09:20:36;;;;;;;7.07;5.10;;;;;;;;;;5024455;28;20053;-59
2023/06/09 09:23:05;;;;;;;8.70;5.22;;;;;;;;;;5020765;28;20563;-59
2023/06/09 09:25:33;;;;;;;6.45;5.10;;;;;;;;;;5025073;28;20041;-59
2023/06/09 09:28:08;;;;;;;8.05;5.32;;;;;;;;;;5025264;28;20507;-59
2023/06/09 09:30:39;;;;;;;8.75;5.85;;;;;;;;;;5021723;28;20087;-59
2023/06/09 09:33:13;;;;;;;10.27;6.13;;;;;;;;;;5022704;28;20404;-59
2023/06/09 09:35:44;;;;;;;8.02;5.68;;;;;;;;;;5025878;28;20041;-58
2023/06/09 09:38:14;;;;;;;8.45;5.68;;;;;;;;;;5017978;28;20045;-58
2023/06/09 09:40:43;;;;;;;8.45;5.38;;;;;;;;;;5021561;28;20496;-60
2023/06/09 09:43:11;;;;;;;7.85;5.57;;;;;;;;;;5020086;28;20054;-59
2023/06/09 09:45:46;;;;;;;8.23;5.82;;;;;;;;;;5019980;28;20056;-59
2023/06/09 09:48:16;;;;;;;6.88;5.40;;;;;;;;;;5019793;28;20040;-58
2023/06/09 09:50:44;;;;;;;10.85;5.35;;;;;;;;;;5021328;28;20053;-59
2023/06/09 09:53:11;;;;;;;9.27;5.90;;;;;;;;;;5016577;28;20029;-59
2023/06/09 09:55:41;;;;;;;10.35;6.10;;;;;;;;;;5012374;28;20033;-59
2023/06/09 09:58:09;;;;;;;7.93;5.90;;;;;;;;;;5010402;28;20037;-59
2023/06/09 10:00:37;;;;;;;7.75;5.53;;;;;;;;;;5004916;28;20042;-59
2023/06/09 10:03:17;;;;;;;9.32;5.97;;;;;;;;;;5025169;28;20407;-59
2023/06/09 10:05:46;;;;;;;9.32;6.10;;;;;;;;;;5025439;28;20049;-60
2023/06/09 10:08:19;;;;;;;;;;;;;;;;;;5021316;28;20052;-60
2023/06/09 10:10:46;;;;;;;11.25;5.78;;;;;;;;;;5023800;28;19912;-60
2023/06/09 10:13:12;;;;;;;7.40;5.82;;;;;;;;;;5025568;28;20049;-60
2023/06/09 10:15:42;;;;;;;8.55;5.68;;;;;;;;;;5023767;28;20064;-60
2023/06/09 10:18:10;;;;;;;13.38;7.82;;;;;;;;;;5016415;28;20038;-60
2023/06/09 10:20:36;;;;;;;7.47;5.60;;;;;;;;;;5024080;28;20041;-60
2023/06/09 10:23:04;;;;;;;11.85;6.10;;;;;;;;;;5025570;28;20046;-60
2023/06/09 10:25:30;;;;;;;7.70;5.45;;;;;;;;;;5023195;28;20122;-60
2023/06/09 10:27:56;;;;;;;8.35;5.95;;;;;;;;;;5034973;28;20042;-60
2023/06/09 10:30:22;;;;;;;9.57;5.38;;;;;;;;;;5023406;28;20411;-60
2023/06/09 10:33:12;;;;;;;8.80;5.72;;;;;;;;;;5024621;28;20053;-60
2023/06/09 10:35:40;;;;;;;8.73;5.43;;;;;;;;;;5020268;28;20049;-60
2023/06/09 10:38:42;;;;;;;10.40;5.70;;;;;;;;;;5020700;28;20045;-60
2023/06/09 10:41:15;;;;;;;6.78;5.32;;;;;;;;;;5024522;28;20060;-60
2023/06/09 10:44:17;;;;;;;8.30;5.38;;;;;;;;;;5015141;28;20415;-60
2023/06/09 10:46:50;;;;;;;7.13;5.15;;;;;;;;;;5008248;28;20038;-61
2023/06/09 10:49:25;;;;;;;5.97;5.35;;;;;;;;;;5017285;28;20033;-60
2023/06/09 10:51:52;;;;;;;8.32;5.40;;;;;;;;;;5022583;28;20125;-60
2023/06/09 10:54:23;;;;;;;7.70;5.45;;;;;;;;;;5016095;28;20054;-60
2023/06/09 10:57:00;;;;;;;7.28;5.70;;;;;;;;;;5011241;28;20030;-60
2023/06/09 10:59:26;;;;;;;7.22;5.65;;;;;;;;;;5006755;28;20038;-60
2023/06/09 11:02:04;;;;;;;11.25;6.90;;;;;;;;;;5022848;28;20053;-61
2023/06/09 11:04:45;;;;;;;6.65;5.40;;;;;;;;;;5025263;28;20056;-59
2023/06/09 11:07:15;;;;;;;8.38;5.75;;;;;;;;;;5018450;28;20041;-60
2023/06/09 11:09:48;;;;;;;6.63;5.30;;;;;;;;;;5022247;28;20396;-59
2023/06/09 11:12:42;;;;;;;7.70;5.20;;;;;;;;;;5023973;28;20044;-60
2023/06/09 11:15:12;;;;;;;6.10;5.40;;;;;;;;;;5008538;28;20504;-60
2023/06/09 11:17:39;;;;;;;8.93;4.55;;;;;;;;;;5021958;28;20049;-60
2023/06/09 11:20:06;;;;;;;7.85;5.18;;;;;;;;;;5023996;28;20049;-60
2023/06/09 11:22:33;;;;;;;7.45;5.15;;;;;;;;;;5022404;28;20060;-60
2023/06/09 11:25:00;;;;;;;8.98;4.80;;;;;;;;;;5019995;28;20042;-60
2023/06/09 11:27:26;;;;;;;7.57;5.22;;;;;;;;;;5022210;28;20419;-60
2023/06/09 11:30:08;;;;;;;6.10;4.75;;;;;;;;;;5023384;28;20045;-61
2023/06/09 11:32:49;;;;;;;7.68;5.10;;;;;;;;;;5019485;28;20403;-60
2023/06/09 11:35:36;;;;;;;7.53;4.97;;;;;;;;;;5022435;28;20048;-60
2023/06/09 11:38:07;;;;;;;6.93;5.10;;;;;;;;;;5022858;28;20041;-60
2023/06/09 11:40:40;;;;;;;10.00;5.93;;;;;;;;;;5018801;28;20057;-61
2023/06/09 11:43:08;;;;;;;10.40;5.72;;;;;;;;;;5049917;28;20034;-61
2023/06/09 11:45:36;;;;;;;9.43;5.75;;;;;;;;;;5011697;28;20041;-61
2023/06/09 11:48:05;;;;;;;5.73;4.63;;;;;;;;;;5018554;28;20033;-61
2023/06/09 11:50:43;;;;;;;7.57;5.13;;;;;;;;;;5018561;28;20042;-60
2023/06/09 11:53:14;;;;;;;6.57;5.05;;;;;;;;;;5013352;28;20048;-61
2023/06/09 11:55:40;;;;;;;8.88;5.70;;;;;;;;;;5011395;28;20056;-61
2023/06/09 11:58:12;;;;;;;12.77;5.28;;;;;;;;;;5008423;28;20041;-60
2023/06/09 12:00:41;;;;;;;12.45;8.25;;;;;;;;;;5019441;28;20042;-60
2023/06/09 12:03:07;;;;;;;;;;;;;;;;;;5023565;28;20044;-60
2023/06/09 12:05:34;;;;;;;9.73;5.07;;;;;;;;;;5022872;28;19917;-61
2023/06/09 12:08:00;;;;;;;8.18;5.38;;;;;;;;;;5016358;28;20045;-59
2023/06/09 12:10:27;;;;;;;7.82;5.35;;;;;;;;;;5019649;28;20050;-60
2023/06/09 12:12:56;;;;;;;6.75;5.32;;;;;;;;;;5021601;28;20530;-61
2023/06/09 12:15:25;;;;;;;9.20;5.97;;;;;;;;;;5023104;28;20045;-61
2023/06/09 12:17:53;;;;;;;7.75;6.20;;;;;;;;;;5017460;28;20104;-60
2023/06/09 12:20:32;;;;;;;6.28;5.45;;;;;;;;;;5020008;28;20034;-61
2023/06/09 12:23:02;;;;;;;;;;;;;;;;;;5022406;28;20042;-61
2023/06/09 12:25:34;;;;;;;6.53;5.43;;;;;;;;;;5021557;28;19917;-60
2023/06/09 12:28:12;;;;;;;7.07;5.00;;;;;;;;;;5014596;28;20502;-60
2023/06/09 12:30:44;;;;;;;7.00;5.40;;;;;;;;;;5009043;28;20088;-60
2023/06/09 12:33:12;;;;;;;8.07;5.72;;;;;;;;;;5023039;28;20045;-59
2023/06/09 12:35:40;;;;;;;8.13;6.13;;;;;;;;;;5017711;28;20034;-60
2023/06/09 12:38:09;;;;;;;6.80;5.45;;;;;;;;;;5019976;28;20072;-61
2023/06/09 12:40:47;;;;;;;8.38;5.43;;;;;;;;;;5022229;28;20048;-61
2023/06/09 12:43:16;;;;;;;8.48;5.90;;;;;;;;;;5015435;28;20041;-60
2023/06/09 12:45:43;;;;;;;7.90;5.85;;;;;;;;;;5008000;28;20049;-61
2023/06/09 12:48:09;;;;;;;8.27;5.95;;;;;;;;;;5011610;28;20041;-61
2023/06/09 12:50:36;;;;;;;8.18;5.57;;;;;;;;;;5021695;28;20507;-61
2023/06/09 12:53:02;;;;;;;7.40;5.32;;;;;;;;;;5020518;28;20101;-61
2023/06/09 12:55:28;;;;;;;8.88;5.70;;;;;;;;;;5009856;28;20038;-60
2023/06/09 12:57:54;;;;;;;6.32;5.00;;;;;;;;;;5010846;28;20487;-60
2023/06/09 13:00:21;;;;;;;8.02;5.90;;;;;;;;;;5015093;28;20407;-60
2023/06/09 13:02:47;;;;;;;6.60;5.30;;;;;;;;;;5021126;28;20518;-60
2023/06/09 13:05:14;;;;;;;8.25;5.80;;;;;;;;;;5023751;28;20057;-60
2023/06/09 13:07:42;;;;;;;6.72;5.55;;;;;;;;;;5020008;28;20049;-61
2023/06/09 13:10:08;;;;;;;7.22;5.75;;;;;;;;;;5023170;28;20782;-61
2023/06/09 13:12:35;;;;;;;7.38;5.97;;;;;;;;;;5006633;28;20065;-61
2023/06/09 13:15:04;;;;;;;9.63;6.10;;;;;;;;;;5018360;28;20041;-62
2023/06/09 13:17:31;;;;;;;6.97;5.70;;;;;;;;;;5019832;28;20622;-61
2023/06/09 13:19:57;;;;;;;8.57;6.40;;;;;;;;;;5022614;28;20045;-61
2023/06/09 13:22:23;;;;;;;10.55;6.60;;;;;;;;;;5020871;28;20046;-61
2023/06/09 13:24:49;;;;;;;8.20;6.20;;;;;;;;;;5034025;28;20034;-61
2023/06/09 13:27:16;;;;;;;9.43;5.80;;;;;;;;;;5018249;28;20046;-61
2023/06/09 13:29:42;;;;;;;6.32;5.68;;;;;;;;;;5021816;28;20045;-61
2023/06/09 13:32:08;;;;;;;8.27;6.00;;;;;;;;;;5021652;28;20049;-61
2023/06/09 13:34:34;;;;;;;8.15;5.88;;;;;;;;;;5001781;28;20057;-61
2023/06/09 13:37:00;;;;;;;8.23;5.93;;;;;;;;;;5019040;28;20037;-61
2023/06/09 13:39:27;;;;;;;9.55;6.38;;;;;;;;;;5021432;28;20053;-61
2023/06/09 13:41:53;;;;;;;8.70;6.07;;;;;;;;;;5020069;28;20044;-62
2023/06/09 13:44:20;;;;;;;9.32;6.00;;;;;;;;;;5006234;28;20042;-61
2023/06/09 13:46:46;;;;;;;7.38;6.28;;;;;;;;;;5008197;28;20038;-61
2023/06/09 13:49:12;;;;;;;8.55;6.03;;;;;;;;;;5021130;28;20033;-60
2023/06/09 13:51:41;;;;;;;8.85;6.15;;;;;;;;;;5021943;28;20037;-59
2023/06/09 13:54:07;;;;;;;;;;;;;;;;;;5012905;28;20045;-60
2023/06/09 13:56:33;;;;;;;7.97;5.90;;;;;;;;;;5009358;28;19917;-59
2023/06/09 13:59:00;;;;;;;9.20;6.05;;;;;;;;;;5012910;28;20105;-60
2023/06/09 14:01:27;;;;;;;10.70;6.50;;;;;;;;;;5021747;28;20553;-60
2023/06/09 14:03:53;;;;;;;7.90;5.75;;;;;;;;;;5022712;28;20033;-60
2023/06/09 14:06:20;;;;;;;7.40;6.22;;;;;;;;;;5021621;28;20048;-61
2023/06/09 14:08:46;;;;;;;9.02;6.03;;;;;;;;;;5018589;28;20038;-60
2023/06/09 14:11:13;;;;;;;7.45;5.57;;;;;;;;;;5024725;28;20044;-60
2023/06/09 14:13:39;;;;;;;10.07;6.35;;;;;;;;;;5023633;28;20049;-61
2023/06/09 14:16:05;;;;;;;7.07;5.88;;;;;;;;;;5021697;28;20062;-60
2023/06/09 14:18:31;;;;;;;9.77;5.97;;;;;;;;;;5023044;28;20057;-61
2023/06/09 14:20:57;;;;;;;7.60;5.97;;;;;;;;;;5025090;28;20057;-60
2023/06/09 14:23:23;;;;;;;7.30;6.03;;;;;;;;;;5025065;28;20056;-59
2023/06/09 14:25:52;;;;;;;7.60;5.63;;;;;;;;;;5021296;28;20046;-61
2023/06/09 14:28:18;;;;;;;8.10;5.90;;;;;;;;;;5023331;28;20064;-60
2023/06/09 14:30:44;;;;;;;6.65;5.68;;;;;;;;;;5024303;28;20033;-59
2023/06/09 14:33:11;;;;;;;7.15;5.50;;;;;;;;;;5025056;28;20037;-61
2023/06/09 14:35:37;;;;;;;7.53;5.55;;;;;;;;;;5020194;28;20512;-59
2023/06/09 14:38:04;;;;;;;6.97;5.80;;;;;;;;;;5017388;28;20539;-60
2023/06/09 14:40:34;;;;;;;6.63;5.25;;;;;;;;;;5023271;28;20038;-61